Time;durP1;ratioP1;P1;durP2;ratioP2;P2;SDS_P1;SDS_P2;PMS_P1;PMS_P2;Temp;Humidity;BMP_temperature;BMP_pressure;BME280_temperature;BME280_humidity;BME280_pressure;Samples;Min_cycle;Max_cycle;Signal;HPM_P1;HPM_P2
2023/08/27 00:01:13;;;;;;;15.48;12.30;;;;;;;16.63;75.39;99424.69;5092519;28;20094;-63
2023/08/27 00:03:39;;;;;;;18.70;12.82;;;;;;;16.59;75.36;99435.00;5075149;28;20039;-62
2023/08/27 00:06:04;;;;;;;14.80;12.05;;;;;;;16.62;75.61;99448.19;5092446;28;20024;-64
2023/08/27 00:08:30;;;;;;;14.85;11.63;;;;;;;16.63;75.77;99443.59;5092190;28;20028;-66
2023/08/27 00:10:59;;;;;;;13.63;11.07;;;;;;;16.70;75.60;99444.63;5092910;28;20048;-63
2023/08/27 00:13:25;;;;;;;12.95;10.98;;;;;;;16.55;75.38;99427.41;5092178;28;20040;-65
2023/08/27 00:15:51;;;;;;;13.00;11.00;;;;;;;16.64;75.31;99432.63;5073191;28;20028;-63
2023/08/27 00:18:16;;;;;;;13.15;10.82;;;;;;;16.45;75.26;99396.03;5092018;28;20078;-64
2023/08/27 00:20:42;;;;;;;13.13;11.00;;;;;;;16.68;75.19;99433.13;5092525;28;20028;-63
2023/08/27 00:23:14;;;;;;;12.60;10.77;;;;;;;16.64;75.17;99424.53;5092340;28;20148;-63
2023/08/27 00:25:39;;;;;;;13.02;10.35;;;;;;;16.65;74.97;99426.19;5092999;28;20043;-62
2023/08/27 00:28:06;;;;;;;15.23;11.95;;;;;;;16.60;75.13;99414.22;5095528;28;20039;-63
2023/08/27 00:30:32;;;;;;;14.20;11.27;;;;;;;16.67;75.01;99417.94;5095902;28;20028;-66
2023/08/27 00:32:57;;;;;;;14.35;11.48;;;;;;;16.67;74.88;99420.63;5096296;28;20040;-64
2023/08/27 00:35:23;;;;;;;16.77;12.30;;;;;;;16.65;75.01;99415.41;5078368;28;20453;-62
2023/08/27 00:37:50;;;;;;;14.65;11.63;;;;;;;16.60;74.89;99403.41;5095710;28;20354;-63
2023/08/27 00:40:15;;;;;;;16.60;12.13;;;;;;;16.64;74.88;99411.00;5096155;28;20109;-62
2023/08/27 00:42:41;;;;;;;14.13;11.75;;;;;;;16.64;74.99;99411.00;5095916;28;20454;-63
2023/08/27 00:45:06;;;;;;;14.35;11.95;;;;;;;16.63;74.89;99408.47;5095833;28;20043;-63
2023/08/27 00:47:35;;;;;;;15.02;12.10;;;;;;;16.63;75.18;99420.13;5095257;28;20036;-63
2023/08/27 00:50:02;;;;;;;14.40;12.07;;;;;;;16.63;75.11;99413.88;5096170;28;20089;-62
2023/08/27 00:52:30;;;;;;;16.38;12.65;;;;;;;16.63;74.96;99413.88;5096032;28;20435;-62
2023/08/27 00:54:59;;;;;;;14.52;11.98;;;;;;;16.72;75.02;99412.84;5095735;28;20081;-62
2023/08/27 00:57:25;;;;;;;15.57;12.48;;;;;;;16.69;74.67;99407.78;5095319;28;20092;-63
2023/08/27 00:59:53;;;;;;;15.95;12.32;;;;;;;16.60;74.67;99401.56;5095799;28;20043;-62
2023/08/27 01:02:19;;;;;;;16.23;13.18;;;;;;;16.64;74.71;99405.59;5095203;28;20423;-62
2023/08/27 01:04:44;;;;;;;15.60;12.43;;;;;;;16.57;74.76;99391.09;5095663;28;20050;-62
2023/08/27 01:07:39;;;;;;;15.45;12.65;;;;;;;16.72;74.93;99396.63;5095218;28;20028;-62
2023/08/27 01:10:15;;;;;;;14.20;12.18;;;;;;;16.69;74.79;99396.13;5095452;28;20060;-63
2023/08/27 01:12:55;;;;;;;16.02;12.73;;;;;;;16.79;74.75;99394.91;5077282;28;20051;-62
2023/08/27 01:15:21;;;;;;;17.85;12.77;;;;;;;16.70;74.53;99387.00;5095234;28;20054;-64
2023/08/27 01:17:47;;;;;;;15.88;12.88;;;;;;;16.67;74.60;99385.50;5095162;28;20435;-63
2023/08/27 01:20:14;;;;;;;16.58;12.60;;;;;;;16.71;74.39;99391.38;5077238;28;20028;-62
2023/08/27 01:22:40;;;;;;;16.80;12.43;;;;;;;16.71;74.43;99384.13;5094752;28;20024;-63
2023/08/27 01:25:07;;;;;;;14.00;11.82;;;;;;;16.68;74.30;99384.47;5077227;28;20035;-63
2023/08/27 01:27:39;;;;;;;13.75;11.82;;;;;;;16.73;74.66;99387.50;5094811;28;20046;-62
2023/08/27 01:30:36;;;;;;;16.73;12.10;;;;;;;16.85;74.63;99392.50;5095045;28;20032;-63
2023/08/27 01:33:24;;;;;;;14.05;12.35;;;;;;;16.83;74.33;99384.59;5087775;28;20565;-62
2023/08/27 01:35:51;;;;;;;14.30;11.80;;;;;;;16.67;74.11;99384.63;5094951;28;20385;-63
2023/08/27 01:38:18;;;;;;;14.25;12.57;;;;;;;16.71;74.35;99383.28;5093801;28;20339;-63
2023/08/27 01:40:43;;;;;;;13.90;10.88;;;;;;;16.65;74.20;99369.44;5094646;28;20059;-63
2023/08/27 01:43:09;;;;;;;12.82;10.57;;;;;;;16.58;74.21;99365.75;5094659;28;20067;-64
2023/08/27 01:45:35;;;;;;;14.25;10.13;;;;;;;16.45;74.02;99335.72;5094493;28;20031;-64
2023/08/27 01:48:00;;;;;;;12.38;10.02;;;;;;;16.67;73.85;99365.72;5094987;28;20056;-61
2023/08/27 01:50:26;;;;;;;11.98;10.27;;;;;;;16.70;73.83;99371.63;5094721;28;20119;-62
2023/08/27 01:52:51;;;;;;;10.75;9.63;;;;;;;16.73;73.50;99376.69;5094532;28;20271;-62
2023/08/27 01:55:17;;;;;;;10.85;9.13;;;;;;;16.73;73.66;99375.81;5094588;28;20404;-63
2023/08/27 01:57:44;;;;;;;13.93;10.15;;;;;;;16.72;73.38;99374.16;5094068;28;20035;-63
2023/08/27 02:00:11;;;;;;;10.70;9.45;;;;;;;16.76;73.37;99370.09;5093923;28;20077;-62
2023/08/27 02:02:36;;;;;;;9.82;8.80;;;;;;;16.81;73.40;99377.66;5077542;28;20054;-63
2023/08/27 02:05:08;;;;;;;9.70;8.40;;;;;;;16.83;72.94;99384.59;5094535;28;20102;-62
2023/08/27 02:07:36;;;;;;;8.25;7.38;;;;;;;16.77;72.74;99388.81;5094734;28;20111;-63
2023/08/27 02:10:03;;;;;;;9.77;7.97;;;;;;;16.79;72.87;99392.19;5094495;28;20097;-63
2023/08/27 02:12:29;;;;;;;9.75;8.20;;;;;;;16.74;72.65;99383.78;5093854;28;20063;-62
2023/08/27 02:14:55;;;;;;;8.25;7.45;;;;;;;16.77;72.49;99391.53;5094157;28;20032;-62
2023/08/27 02:17:40;;;;;;;8.23;7.00;;;;;;;16.59;72.32;99353.06;5079181;28;20430;-63
2023/08/27 02:20:09;;;;;;;8.35;7.22;;;;;;;16.75;72.25;99393.56;5093942;28;20031;-63
2023/08/27 02:22:34;;;;;;;7.35;6.53;;;;;;;16.75;72.34;99395.41;5076492;28;20042;-63
2023/08/27 02:25:00;;;;;;;7.97;6.75;;;;;;;16.74;72.16;99391.03;5094013;28;20442;-63
2023/08/27 02:27:25;;;;;;;8.43;7.07;;;;;;;16.74;71.86;99393.72;5093548;28;20032;-62
2023/08/27 02:29:51;;;;;;;7.88;6.13;;;;;;;16.70;72.01;99384.28;5093953;28;20446;-62
2023/08/27 02:32:16;;;;;;;8.32;6.95;;;;;;;16.66;72.13;99389.22;5075505;28;20068;-62
2023/08/27 02:34:43;;;;;;;8.77;7.00;;;;;;;16.63;72.31;99386.84;5093796;28;20035;-61
2023/08/27 02:37:08;;;;;;;10.00;7.47;;;;;;;16.63;72.23;99386.84;5093805;28;20039;-64
2023/08/27 02:39:34;;;;;;;8.68;7.20;;;;;;;16.66;72.16;99397.34;5093513;28;20379;-62
2023/08/27 02:41:59;;;;;;;9.63;7.53;;;;;;;16.69;71.97;99390.72;5093553;28;20036;-62
2023/08/27 02:44:25;;;;;;;7.20;6.45;;;;;;;16.69;72.21;99394.28;5093617;28;20024;-62
2023/08/27 02:46:50;;;;;;;9.93;8.55;;;;;;;16.41;72.00;99356.88;5093572;28;20377;-62
2023/08/27 02:49:16;;;;;;;10.75;8.73;;;;;;;16.59;72.08;99382.81;5093381;28;20032;-62
2023/08/27 02:51:41;;;;;;;9.27;8.27;;;;;;;16.60;72.06;99373.69;5093344;28;20489;-62
2023/08/27 02:54:07;;;;;;;11.85;7.70;;;;;;;16.69;72.11;99377.19;5092962;28;20031;-61
2023/08/27 02:56:32;;;;;;;8.77;7.47;;;;;;;16.68;72.03;99384.47;5093630;28;20468;-62
2023/08/27 02:58:58;;;;;;;10.75;7.90;;;;;;;16.71;71.84;99381.44;5092916;28;20098;-61
2023/08/27 03:01:24;;;;;;;8.30;7.50;;;;;;;16.69;71.99;99374.50;5075335;28;20354;-62
2023/08/27 03:03:50;;;;;;;8.45;7.60;;;;;;;16.74;71.97;99388.31;5075649;28;20032;-62
2023/08/27 03:06:16;;;;;;;10.75;7.80;;;;;;;16.73;71.97;99383.94;5093270;28;20020;-61
2023/08/27 03:08:42;;;;;;;11.77;7.80;;;;;;;16.77;71.98;99383.41;5093076;28;20020;-62
2023/08/27 03:11:08;;;;;;;8.95;8.05;;;;;;;16.69;71.92;99369.94;5075399;28;20051;-63
2023/08/27 03:13:33;;;;;;;9.55;8.45;;;;;;;16.71;72.11;99388.69;5092415;28;20035;-63
2023/08/27 03:15:59;;;;;;;10.10;8.05;;;;;;;16.64;72.35;99377.75;5092651;28;20051;-62
2023/08/27 03:18:24;;;;;;;9.50;8.38;;;;;;;16.65;72.29;99380.25;5092449;28;20039;-63
2023/08/27 03:20:51;;;;;;;10.45;8.10;;;;;;;16.68;72.29;99392.59;5074983;28;20035;-62
2023/08/27 03:23:17;;;;;;;10.95;8.60;;;;;;;16.70;72.22;99401.38;5092601;28;20169;-63
2023/08/27 03:25:43;;;;;;;10.48;9.38;;;;;;;16.68;72.18;99375.50;5092653;28;20024;-63
2023/08/27 03:28:09;;;;;;;13.02;9.75;;;;;;;16.74;72.05;99383.78;5093123;28;20043;-62
2023/08/27 03:30:34;;;;;;;10.27;8.77;;;;;;;16.75;71.83;99385.47;5092681;28;20024;-62
2023/08/27 03:33:00;;;;;;;10.30;8.88;;;;;;;16.80;71.98;99387.66;5092756;28;20043;-63
2023/08/27 03:35:25;;;;;;;9.70;8.70;;;;;;;16.77;71.85;99386.13;5092360;28;20035;-63
2023/08/27 03:37:51;;;;;;;9.63;8.55;;;;;;;16.83;71.70;99397.25;5092489;28;20036;-63
2023/08/27 03:40:17;;;;;;;10.88;8.57;;;;;;;16.86;71.53;99391.50;5092676;28;20032;-62
2023/08/27 03:42:42;;;;;;;9.65;8.75;;;;;;;16.92;71.29;99382.69;5092673;28;20039;-66
2023/08/27 03:45:09;;;;;;;11.10;9.32;;;;;;;16.91;71.49;99386.41;5093048;28;20116;-63
2023/08/27 03:47:34;;;;;;;9.32;8.43;;;;;;;16.89;71.11;99372.25;5092550;28;20043;-62
2023/08/27 03:50:00;;;;;;;9.90;8.90;;;;;;;17.05;71.08;99380.28;5092683;28;20354;-63
2023/08/27 03:52:25;;;;;;;11.95;9.43;;;;;;;17.01;70.47;99368.13;5092504;28;20420;-63
2023/08/27 03:54:51;;;;;;;13.98;9.13;;;;;;;17.10;70.70;99385.16;5092476;28;20040;-63
2023/08/27 03:57:16;;;;;;;9.95;8.95;;;;;;;17.10;70.55;99387.00;5092481;28;20081;-62
2023/08/27 03:59:42;;;;;;;10.10;9.02;;;;;;;17.11;70.36;99380.59;5092292;28;20039;-61
2023/08/27 04:02:08;;;;;;;11.30;8.52;;;;;;;17.13;70.63;99386.69;5095658;28;20039;-64
2023/08/27 04:04:33;;;;;;;12.90;8.88;;;;;;;17.14;70.23;99378.38;5097023;28;20043;-63
2023/08/27 04:07:00;;;;;;;10.15;8.88;;;;;;;17.22;70.01;99383.72;5096368;28;20032;-62
2023/08/27 04:09:25;;;;;;;11.30;9.43;;;;;;;17.25;69.76;99369.00;5096468;28;20098;-62
2023/08/27 04:11:51;;;;;;;9.90;8.88;;;;;;;17.41;69.39;99367.22;5096368;28;20044;-62
2023/08/27 04:14:16;;;;;;;12.15;9.13;;;;;;;17.48;69.16;99357.34;5096329;28;20032;-63
2023/08/27 04:16:42;;;;;;;10.10;8.90;;;;;;;17.43;68.84;99343.53;5078796;28;20032;-62
2023/08/27 04:19:08;;;;;;;10.63;8.98;;;;;;;17.57;68.89;99356.25;5096059;28;20108;-61
2023/08/27 04:21:33;;;;;;;12.68;9.35;;;;;;;17.56;68.91;99353.75;5078624;28;20513;-62
2023/08/27 04:23:59;;;;;;;12.05;8.93;;;;;;;17.58;68.68;99349.81;5078761;28;20032;-63
2023/08/27 04:26:25;;;;;;;10.65;8.80;;;;;;;17.61;68.61;99363.03;5078389;28;20090;-62
2023/08/27 04:28:50;;;;;;;10.82;9.43;;;;;;;17.60;68.35;99345.09;5078104;28;20020;-62
2023/08/27 04:31:16;;;;;;;10.43;9.43;;;;;;;17.72;67.55;99344.66;5096261;28;20419;-63
2023/08/27 04:33:43;;;;;;;13.05;9.80;;;;;;;17.55;68.54;99344.78;5095668;28;20036;-63
2023/08/27 04:36:09;;;;;;;11.15;9.43;;;;;;;17.56;68.61;99342.94;5095987;28;20024;-64
2023/08/27 04:38:34;;;;;;;10.85;9.75;;;;;;;17.74;67.27;99348.03;5078955;28;20135;-63
2023/08/27 04:41:00;;;;;;;10.60;8.68;;;;;;;17.62;67.78;99353.03;5096096;28;20024;-62
2023/08/27 04:43:26;;;;;;;10.25;9.15;;;;;;;17.59;67.67;99358.81;5078062;28;20462;-63
2023/08/27 04:45:52;;;;;;;11.05;9.48;;;;;;;17.58;67.57;99336.28;5095834;28;20040;-63
2023/08/27 04:48:19;;;;;;;11.27;8.82;;;;;;;17.76;66.81;99337.84;5095755;28;20483;-64
2023/08/27 04:50:45;;;;;;;12.23;9.77;;;;;;;17.89;65.91;99346.19;5096003;28;20458;-64
2023/08/27 04:53:11;;;;;;;10.70;9.60;;;;;;;17.97;65.76;99345.28;5079101;28;20039;-64
2023/08/27 04:55:36;;;;;;;11.43;9.38;;;;;;;18.17;64.84;99353.75;5095876;28;20039;-65
2023/08/27 04:58:04;;;;;;;10.52;9.50;;;;;;;18.22;64.65;99356.72;5095249;28;20036;-64
2023/08/27 05:00:30;;;;;;;10.68;9.63;;;;;;;18.34;64.18;99356.28;5095479;28;20035;-64
2023/08/27 05:02:56;;;;;;;9.93;8.93;;;;;;;18.43;63.57;99349.75;5094968;28;20039;-62
2023/08/27 05:05:22;;;;;;;11.05;8.77;;;;;;;18.54;63.38;99334.00;5094697;28;20032;-63
2023/08/27 05:07:47;;;;;;;9.95;8.85;;;;;;;18.71;62.95;99351.78;5094956;28;20496;-65
2023/08/27 05:10:13;;;;;;;9.98;8.98;;;;;;;18.83;62.76;99351.31;5077500;28;20020;-61
2023/08/27 05:12:38;;;;;;;11.63;10.30;;;;;;;18.82;62.12;99357.75;5092660;28;20079;-62
2023/08/27 05:15:05;;;;;;;14.30;9.32;;;;;;;18.78;62.43;99366.25;5094968;28;20044;-62
2023/08/27 05:17:31;;;;;;;11.20;10.10;;;;;;;18.82;62.47;99374.03;5094814;28;20107;-62
2023/08/27 05:19:57;;;;;;;13.02;10.77;;;;;;;18.76;61.84;99337.66;5095202;28;20123;-64
2023/08/27 05:22:22;;;;;;;13.65;10.85;;;;;;;19.15;61.23;99376.31;5094031;28;20036;-62
2023/08/27 05:24:48;;;;;;;12.98;9.38;;;;;;;19.38;60.75;99362.59;5092548;28;20103;-63
2023/08/27 05:27:14;;;;;;;11.90;10.35;;;;;;;19.56;60.12;99364.88;5095366;28;20130;-61
2023/08/27 05:29:39;;;;;;;11.02;9.80;;;;;;;19.70;59.29;99362.25;5080404;28;20032;-63
2023/08/27 05:32:05;;;;;;;11.23;10.13;;;;;;;19.70;59.15;99359.53;5076866;28;20062;-62
2023/08/27 05:34:31;;;;;;;11.05;10.05;;;;;;;19.82;59.07;99358.00;5094448;28;20032;-65
2023/08/27 05:36:57;;;;;;;12.63;10.60;;;;;;;19.90;58.47;99359.75;5094356;28;20328;-63
2023/08/27 05:39:23;;;;;;;10.85;9.63;;;;;;;19.91;58.38;99373.13;5094069;28;20183;-63
2023/08/27 05:41:49;;;;;;;10.00;9.00;;;;;;;19.96;58.49;99369.00;5094704;28;20419;-65
2023/08/27 05:44:14;;;;;;;11.10;9.30;;;;;;;20.18;58.13;99365.19;5094420;28;20032;-71
2023/08/27 05:46:40;;;;;;;11.73;10.60;;;;;;;20.29;57.50;99368.41;5094183;28;20028;-70
2023/08/27 05:49:06;;;;;;;13.07;10.27;;;;;;;20.29;57.31;99382.00;5076440;28;20020;-65
2023/08/27 05:51:31;;;;;;;14.25;10.20;;;;;;;20.26;57.40;99390.56;5094101;28;20111;-67
2023/08/27 05:53:57;;;;;;;11.43;10.32;;;;;;;20.17;57.55;99385.25;5089492;28;20119;-62
2023/08/27 05:56:22;;;;;;;13.85;10.68;;;;;;;20.12;57.77;99384.16;5094332;28;20038;-66
2023/08/27 05:58:48;;;;;;;11.93;10.75;;;;;;;20.09;57.65;99385.41;5085547;28;20039;-68
2023/08/27 06:01:15;;;;;;;13.30;10.55;;;;;;;20.10;57.79;99381.66;5094046;28;20082;-69
2023/08/27 06:03:41;;;;;;;11.98;10.77;;;;;;;20.06;57.47;99364.06;5094361;28;20024;-70
2023/08/27 06:06:06;;;;;;;12.15;10.55;;;;;;;20.07;57.79;99366.56;5094603;28;20060;-70
2023/08/27 06:08:32;;;;;;;13.88;10.05;;;;;;;20.21;57.89;99369.41;5093899;28;20119;-70
2023/08/27 06:10:57;;;;;;;11.90;10.70;;;;;;;20.34;56.81;99355.06;5094182;28;20511;-65
2023/08/27 06:13:23;;;;;;;11.88;10.43;;;;;;;20.54;56.35;99348.91;5093888;28;20123;-63
2023/08/27 06:15:49;;;;;;;12.32;10.50;;;;;;;20.90;55.33;99375.03;5093805;28;20439;-66
2023/08/27 06:18:15;;;;;;;11.60;10.43;;;;;;;21.17;54.56;99384.16;5093504;28;20104;-65
2023/08/27 06:20:42;;;;;;;13.68;10.70;;;;;;;21.37;54.21;99378.75;5093393;28;20040;-66
2023/08/27 06:23:08;;;;;;;11.63;10.43;;;;;;;21.63;53.26;99384.47;5092691;28;20027;-66
2023/08/27 06:25:34;;;;;;;14.32;10.07;;;;;;;21.86;52.40;99389.53;5093121;28;20024;-65
2023/08/27 06:28:03;;;;;;;14.25;10.57;;;;;;;22.06;52.06;99384.13;5093531;28;20032;-66
2023/08/27 06:30:28;;;;;;;12.80;10.73;;;;;;;22.09;51.76;99391.00;5075500;28;20028;-66
2023/08/27 06:32:54;;;;;;;11.23;10.20;;;;;;;22.30;51.30;99394.56;5092964;28;20092;-66
2023/08/27 06:35:20;;;;;;;12.75;10.23;;;;;;;22.60;50.45;99383.19;5093377;28;20024;-66
2023/08/27 06:37:45;;;;;;;11.13;9.70;;;;;;;22.88;50.08;99382.91;5093659;28;20034;-67
2023/08/27 06:40:12;;;;;;;17.27;11.35;;;;;;;23.09;49.54;99380.94;5093184;28;20024;-65
2023/08/27 06:42:38;;;;;;;12.32;10.02;;;;;;;23.06;48.77;99379.47;5090524;28;20166;-65
2023/08/27 06:45:04;;;;;;;11.95;10.07;;;;;;;22.83;49.24;99346.41;5093026;28;20107;-66
2023/08/27 06:47:31;;;;;;;11.23;9.15;;;;;;;22.91;49.66;99374.28;5093084;28;20032;-66
2023/08/27 06:49:57;;;;;;;13.52;10.05;;;;;;;22.68;49.54;99344.78;5074952;28;20110;-66
2023/08/27 06:52:22;;;;;;;11.95;9.35;;;;;;;22.78;49.54;99342.44;5090691;28;20043;-66
2023/08/27 06:54:49;;;;;;;11.15;9.10;;;;;;;23.15;49.09;99369.13;5091381;28;20458;-65
2023/08/27 06:57:15;;;;;;;10.88;7.85;;;;;;;23.32;48.48;99364.03;5074398;28;20118;-66
2023/08/27 06:59:40;;;;;;;10.20;8.35;;;;;;;23.43;47.85;99357.03;5092116;28;20173;-65
2023/08/27 07:02:06;;;;;;;9.13;7.85;;;;;;;23.61;47.09;99367.19;5091990;28;20024;-67
2023/08/27 07:04:32;;;;;;;9.20;7.43;;;;;;;23.80;46.69;99367.28;5092736;28;20044;-68
2023/08/27 07:06:58;;;;;;;8.07;7.07;;;;;;;24.07;45.45;99383.50;5074954;28;20031;-66
2023/08/27 07:09:23;;;;;;;8.15;6.80;;;;;;;25.00;43.69;99371.81;5057040;28;20350;-66
2023/08/27 07:11:49;;;;;;;7.18;6.45;;;;;;;28.73;36.70;99374.97;5091967;28;20047;-66
2023/08/27 07:14:15;;;;;;;7.88;7.03;;;;;;;30.41;33.41;99379.09;5082042;28;20114;-67
2023/08/27 07:16:42;;;;;;;9.13;6.57;;;;;;;31.65;31.38;99372.13;5076241;28;20087;-67
2023/08/27 07:19:07;;;;;;;8.85;7.15;;;;;;;31.34;31.73;99362.94;5088058;28;20067;-67
2023/08/27 07:21:33;;;;;;;10.73;7.82;;;;;;;30.39;33.21;99376.63;5072538;28;20348;-67
2023/08/27 07:23:59;;;;;;;7.15;6.25;;;;;;;29.40;35.11;99382.34;5073829;28;20032;-67
2023/08/27 07:26:25;;;;;;;10.75;6.70;;;;;;;28.77;35.89;99370.59;5071564;28;20040;-66
2023/08/27 07:28:51;;;;;;;8.45;6.55;;;;;;;28.42;36.41;99368.19;5074436;28;20020;-66
2023/08/27 07:31:16;;;;;;;8.05;6.35;;;;;;;29.48;35.05;99363.44;5072538;28;20046;-67
2023/08/27 07:33:42;;;;;;;7.32;5.90;;;;;;;31.15;31.87;99351.53;5091422;28;20032;-69
2023/08/27 07:36:07;;;;;;;7.15;6.05;;;;;;;35.19;25.99;99357.72;5056254;28;20047;-68
2023/08/27 07:38:39;;;;;;;8.32;5.40;;;;;;;39.41;21.07;99365.59;5092039;28;20032;-69
2023/08/27 07:41:04;;;;;;;10.68;5.35;;;;;;;42.40;17.79;99358.22;5074115;28;20031;-69
2023/08/27 07:43:30;;;;;;;7.78;5.78;;;;;;;44.27;15.85;99340.78;5092114;28;20032;-66
2023/08/27 07:45:55;;;;;;;6.20;5.60;;;;;;;45.79;14.37;99358.31;5091298;28;20024;-65
2023/08/27 07:48:21;;;;;;;5.25;4.70;;;;;;;46.89;13.38;99342.00;5069276;28;20464;-63
2023/08/27 07:50:47;;;;;;;6.63;5.25;;;;;;;46.89;12.86;99322.19;5069066;28;20089;-63
2023/08/27 07:53:13;;;;;;;7.13;4.90;;;;;;;47.37;12.69;99346.28;5087023;28;20036;-64
2023/08/27 07:55:38;;;;;;;5.18;4.68;;;;;;;46.09;13.20;99348.34;5072118;28;20115;-65
2023/08/27 07:58:04;;;;;;;5.18;4.68;;;;;;;43.72;15.59;99350.63;5089859;28;20115;-65
2023/08/27 08:00:30;;;;;;;7.18;4.68;;;;;;;42.67;16.04;99327.75;5091207;28;20044;-66
2023/08/27 08:02:55;;;;;;;5.70;4.72;;;;;;;43.27;15.31;99321.56;5074969;28;20409;-64
2023/08/27 08:05:21;;;;;;;11.13;5.75;;;;;;;43.70;14.95;99316.34;5074627;28;20024;-65
2023/08/27 08:07:47;;;;;;;14.13;5.88;;;;;;;42.62;15.80;99280.16;5092222;28;20120;-65
2023/08/27 08:10:13;;;;;;;13.52;5.80;;;;;;;40.45;17.52;99304.84;5092114;28;20123;-65
2023/08/27 08:12:38;;;;;;;6.43;5.22;;;;;;;37.96;19.68;99313.78;5092466;28;20134;-65
2023/08/27 08:15:04;;;;;;;8.10;5.43;;;;;;;35.95;22.27;99312.28;5092617;28;20028;-66
2023/08/27 08:17:31;;;;;;;7.18;5.25;;;;;;;34.18;24.22;99319.44;5091988;28;20024;-65
2023/08/27 08:19:57;;;;;;;6.60;4.95;;;;;;;32.73;26.26;99320.47;5092491;28;20024;-67
2023/08/27 08:22:22;;;;;;;7.20;5.00;;;;;;;31.73;28.21;99309.03;5092544;28;20042;-65
2023/08/27 08:24:48;;;;;;;7.72;5.30;;;;;;;30.73;29.43;99320.16;5092261;28;20358;-65
2023/08/27 08:27:13;;;;;;;9.73;5.13;;;;;;;29.94;31.20;99316.13;5089205;28;20036;-66
2023/08/27 08:29:39;;;;;;;8.80;5.05;;;;;;;29.47;31.77;99305.81;5091715;28;20060;-66
2023/08/27 08:32:04;;;;;;;8.75;5.63;;;;;;;28.72;32.84;99296.16;5092205;28;20039;-65
2023/08/27 08:34:30;;;;;;;7.60;5.53;;;;;;;28.11;34.02;99318.19;5092305;28;20028;-65
2023/08/27 08:36:56;;;;;;;6.70;5.95;;;;;;;27.59;35.35;99312.69;5092381;28;20028;-66
2023/08/27 08:39:24;;;;;;;11.35;6.40;;;;;;;27.14;35.87;99306.13;5092433;28;20102;-65
2023/08/27 08:42:33;;;;;;;9.55;5.60;;;;;;;27.08;35.97;99309.84;5092027;28;20028;-66
2023/08/27 08:45:05;;;;;;;12.52;7.43;;;;;;;26.86;36.93;99309.69;5091612;28;20126;-65
2023/08/27 08:47:35;;;;;;;8.07;6.57;;;;;;;26.74;37.08;99316.00;5094237;28;20465;-68
2023/08/27 08:50:05;;;;;;;9.43;6.15;;;;;;;26.60;37.06;99317.38;5095768;28;20428;-66
2023/08/27 08:52:36;;;;;;;9.07;5.50;;;;;;;26.56;37.50;99310.72;5095561;28;20028;-65
2023/08/27 08:55:06;;;;;;;10.73;6.68;;;;;;;26.60;37.69;99309.16;5095914;28;20089;-64
2023/08/27 08:57:35;;;;;;;10.65;6.55;;;;;;;26.74;37.47;99313.25;5095197;28;20535;-65
2023/08/27 09:00:02;;;;;;;10.05;7.43;;;;;;;26.86;37.22;99317.94;5095397;28;20032;-65
2023/08/27 09:02:31;;;;;;;7.90;7.10;;;;;;;26.97;37.08;99319.78;5094830;28;20123;-65
2023/08/27 09:04:57;;;;;;;9.80;7.18;;;;;;;26.92;37.29;99314.19;5095479;28;20387;-66
2023/08/27 09:07:24;;;;;;;9.40;6.53;;;;;;;26.78;37.23;99308.97;5095923;28;20028;-66
2023/08/27 09:09:51;;;;;;;8.45;6.35;;;;;;;26.66;37.29;99305.41;5095119;28;20046;-65
2023/08/27 09:12:20;;;;;;;11.10;5.97;;;;;;;26.51;38.07;99314.19;5094581;28;20050;-65
2023/08/27 09:14:46;;;;;;;9.05;6.15;;;;;;;26.15;38.08;99319.69;5095417;28;20034;-65
2023/08/27 09:17:16;;;;;;;7.35;5.47;;;;;;;25.97;38.62;99311.56;5095164;28;20032;-65
2023/08/27 09:19:43;;;;;;;10.43;5.90;;;;;;;25.84;38.59;99321.72;5095065;28;20111;-66
2023/08/27 09:22:09;;;;;;;8.18;5.80;;;;;;;25.58;39.25;99306.53;5095151;28;20031;-65
2023/08/27 09:24:35;;;;;;;8.20;5.88;;;;;;;25.30;39.72;99316.19;5089054;28;20028;-66
2023/08/27 09:27:00;;;;;;;6.80;6.15;;;;;;;24.77;40.86;99313.97;5094734;28;20032;-65
2023/08/27 09:29:26;;;;;;;6.63;5.80;;;;;;;24.47;41.59;99317.44;5095031;28;20081;-66
2023/08/27 09:31:55;;;;;;;7.72;5.90;;;;;;;24.21;42.07;99310.34;5095038;28;20031;-66
2023/08/27 09:34:21;;;;;;;7.78;5.50;;;;;;;24.12;42.46;99312.59;5095022;28;20032;-65
2023/08/27 09:36:46;;;;;;;5.90;4.75;;;;;;;24.20;42.09;99297.75;5094766;28;20159;-65
2023/08/27 09:39:12;;;;;;;9.93;5.95;;;;;;;24.25;41.67;99292.47;5094787;28;20099;-65
2023/08/27 09:41:42;;;;;;;6.10;4.95;;;;;;;24.44;41.35;99282.34;5094526;28;20038;-65
2023/08/27 09:44:09;;;;;;;6.20;5.38;;;;;;;24.45;40.78;99273.06;5094272;28;20070;-66
2023/08/27 09:47:02;;;;;;;8.70;5.60;;;;;;;24.66;40.89;99273.66;5094730;28;20043;-66
2023/08/27 09:49:28;;;;;;;7.55;4.97;;;;;;;24.71;40.61;99273.78;5094896;28;20024;-65
2023/08/27 09:51:57;;;;;;;8.60;4.80;;;;;;;24.93;40.42;99263.19;5094801;28;20043;-67
2023/08/27 09:54:28;;;;;;;7.40;4.90;;;;;;;25.25;39.68;99262.09;5094557;28;20038;-67
2023/08/27 09:56:59;;;;;;;6.18;4.32;;;;;;;25.57;39.65;99259.09;5091079;28;20469;-66
2023/08/27 09:59:26;;;;;;;4.60;4.13;;;;;;;25.79;38.89;99270.31;5093581;28;20400;-69
2023/08/27 10:01:52;;;;;;;3.60;3.30;;;;;;;25.44;37.31;99267.50;5094144;28;20320;-68
2023/08/27 10:04:20;;;;;;;6.50;5.88;;;;;;;25.05;37.76;99255.03;5093906;28;20874;-67
2023/08/27 10:06:46;;;;;;;4.88;3.50;;;;;;;24.91;38.37;99264.50;5093728;28;20043;-68
2023/08/27 10:09:12;;;;;;;5.45;3.92;;;;;;;24.67;38.51;99258.91;5094175;28;20032;-66
2023/08/27 10:11:41;;;;;;;5.75;3.50;;;;;;;24.49;39.81;99260.59;5093041;28;20470;-66
2023/08/27 10:14:06;;;;;;;4.93;3.42;;;;;;;24.27;39.94;99262.13;5093101;28;20051;-65
2023/08/27 10:16:36;;;;;;;3.80;2.92;;;;;;;23.92;39.93;99269.84;5094298;28;20370;-66
2023/08/27 10:19:04;;;;;;;3.72;3.05;;;;;;;23.61;40.43;99263.38;5093706;28;20028;-64
2023/08/27 10:21:30;;;;;;;3.35;2.80;;;;;;;23.35;40.76;99259.78;5093501;28;20069;-63
2023/08/27 10:23:57;;;;;;;3.38;3.08;;;;;;;23.33;41.66;99270.09;5094200;28;20051;-67
2023/08/27 10:26:23;;;;;;;3.47;3.15;;;;;;;23.30;42.21;99262.38;5093901;28;20043;-67
2023/08/27 10:28:52;;;;;;;3.20;2.90;;;;;;;23.19;41.86;99244.75;5076209;28;20113;-66
2023/08/27 10:31:18;;;;;;;3.28;2.83;;;;;;;23.20;41.71;99238.25;5093920;28;20114;-66
2023/08/27 10:33:44;;;;;;;3.22;2.92;;;;;;;23.23;42.02;99220.59;5093529;28;20027;-65
2023/08/27 10:36:18;;;;;;;3.60;3.00;;;;;;;23.42;41.57;99248.81;5093472;28;20042;-66
2023/08/27 10:38:46;;;;;;;4.82;2.80;;;;;;;23.31;40.49;99236.72;5093827;28;20123;-68
2023/08/27 10:41:15;;;;;;;3.90;2.90;;;;;;;23.35;41.33;99232.47;5093149;28;20028;-65
2023/08/27 10:43:41;;;;;;;4.82;2.95;;;;;;;23.43;40.71;99234.09;5091628;28;20024;-63
2023/08/27 10:46:16;;;;;;;3.08;2.40;;;;;;;23.63;40.96;99233.94;5090409;28;20047;-68
2023/08/27 10:48:49;;;;;;;3.40;2.38;;;;;;;23.78;40.07;99236.31;5092508;28;20439;-68
2023/08/27 10:51:17;;;;;;;3.42;2.42;;;;;;;23.68;40.03;99226.97;5092359;28;20421;-67
2023/08/27 10:53:49;;;;;;;3.28;2.47;;;;;;;23.84;40.19;99234.56;5091270;28;20127;-69
2023/08/27 10:56:32;;;;;;;3.88;2.20;;;;;;;24.01;40.36;99242.19;5092068;28;20017;-68
2023/08/27 10:59:09;;;;;;;6.40;2.30;;;;;;;23.73;40.09;99208.00;5091777;28;20047;-67
2023/08/27 11:01:58;;;;;;;2.80;1.95;;;;;;;23.84;40.05;99239.22;5092578;28;20039;-69
2023/08/27 11:04:35;;;;;;;3.30;2.53;;;;;;;23.84;40.62;99241.94;5092798;28;20463;-67
2023/08/27 11:07:17;;;;;;;5.85;2.90;;;;;;;23.73;41.35;99240.78;5093072;28;20029;-68
2023/08/27 11:09:48;;;;;;;6.63;2.85;;;;;;;23.61;41.91;99235.22;5092807;28;20032;-69
2023/08/27 11:12:40;;;;;;;3.15;2.80;;;;;;;23.79;41.59;99234.41;5092676;28;20055;-67
2023/08/27 11:15:14;;;;;;;4.35;2.85;;;;;;;23.78;41.76;99244.53;5088961;28;20048;-69
2023/08/27 11:17:41;;;;;;;7.25;2.80;;;;;;;23.72;41.62;99236.38;5090198;28;20716;-68
2023/08/27 11:20:24;;;;;;;4.85;2.53;;;;;;;23.82;41.37;99238.59;5092707;28;20102;-68
2023/08/27 11:22:58;;;;;;;3.95;3.10;;;;;;;23.73;42.42;99247.06;5092171;28;20028;-68
2023/08/27 11:25:28;;;;;;;4.70;2.88;;;;;;;23.73;42.47;99243.53;5091718;28;20151;-68
2023/08/27 11:27:55;;;;;;;5.65;3.25;;;;;;;23.68;41.87;99233.25;5092879;28;20410;-70